Time;durP1;ratioP1;P1;durP2;ratioP2;P2;SDS_P1;SDS_P2;PMS_P1;PMS_P2;Temp;Humidity;BMP_temperature;BMP_pressure;BME280_temperature;BME280_humidity;BME280_pressure;Samples;Min_cycle;Max_cycle;Signal;HPM_P1;HPM_P2
2023/07/08 00:00:14;;;;;;;10.77;7.75;;;;;;;18.08;100.00;93445.69;5081717;28;20052;-76
2023/07/08 00:02:42;;;;;;;11.20;8.32;;;;;;;17.97;100.00;93447.38;5080998;28;20540;-76
2023/07/08 00:05:10;;;;;;;11.05;8.57;;;;;;;17.99;100.00;93441.94;5089212;28;20062;-76
2023/07/08 00:07:39;;;;;;;11.85;8.43;;;;;;;18.04;100.00;93436.78;5069913;28;20057;-76
2023/07/08 00:10:13;;;;;;;11.48;8.93;;;;;;;18.13;100.00;93437.13;5070862;28;20056;-76
2023/07/08 00:12:40;;;;;;;10.40;7.65;;;;;;;18.23;100.00;93437.19;5071575;28;20106;-76
2023/07/08 00:15:07;;;;;;;13.95;9.23;;;;;;;18.26;100.00;93436.69;5076992;28;20033;-76
2023/07/08 00:17:34;;;;;;;11.10;7.97;;;;;;;18.25;100.00;93429.13;5074808;28;20044;-76
2023/07/08 00:20:01;;;;;;;12.32;8.98;;;;;;;18.28;100.00;93437.22;5070350;28;20079;-76
2023/07/08 00:22:28;;;;;;;10.10;7.75;;;;;;;18.39;100.00;93438.06;5070284;28;20040;-76
2023/07/08 00:24:56;;;;;;;11.82;8.00;;;;;;;18.40;100.00;93431.03;5070606;28;20527;-76
2023/07/08 00:27:22;;;;;;;11.73;7.57;;;;;;;18.39;100.00;93419.88;5075316;28;20093;-76
2023/07/08 00:29:49;;;;;;;10.25;7.60;;;;;;;18.41;100.00;93419.59;5084294;28;20336;-76
2023/07/08 00:32:16;;;;;;;12.05;7.82;;;;;;;18.35;100.00;93407.59;5074694;28;20064;-76
2023/07/08 00:34:43;;;;;;;10.05;7.20;;;;;;;18.40;100.00;93415.44;5070182;28;20472;-76
2023/07/08 00:37:12;;;;;;;12.07;7.88;;;;;;;18.33;100.00;93412.28;5070552;28;20049;-76
2023/07/08 00:39:39;;;;;;;10.73;8.20;;;;;;;18.29;100.00;93420.56;5078740;28;20040;-76
2023/07/08 00:42:16;;;;;;;10.02;7.32;;;;;;;18.26;100.00;93412.50;5081326;28;20043;-76
2023/07/08 00:44:44;;;;;;;14.18;8.88;;;;;;;18.25;100.00;93413.53;5079520;28;20045;-76
2023/07/08 00:47:13;;;;;;;10.48;7.80;;;;;;;18.21;100.00;93413.25;5081617;28;20571;-76
2023/07/08 00:49:43;;;;;;;11.38;8.48;;;;;;;18.14;100.00;93394.47;5079168;28;20036;-76
2023/07/08 00:52:21;;;;;;;11.32;8.55;;;;;;;18.21;100.00;93413.25;5081265;28;20505;-76
2023/07/08 00:54:51;;;;;;;12.02;8.57;;;;;;;18.12;100.00;93397.34;5079920;28;20040;-76
2023/07/08 00:57:21;;;;;;;13.88;8.25;;;;;;;18.21;100.00;93409.88;5080802;28;20093;-76
2023/07/08 00:59:53;;;;;;;12.60;8.20;;;;;;;18.22;100.00;93414.81;5080836;28;20052;-76
2023/07/08 01:02:24;;;;;;;12.85;9.00;;;;;;;18.25;100.00;93410.94;5077651;28;20494;-76
2023/07/08 01:04:56;;;;;;;11.15;8.73;;;;;;;18.16;100.00;93390.59;5080746;28;20048;-76
2023/07/08 01:07:25;;;;;;;11.38;8.13;;;;;;;18.23;100.00;93407.81;5079806;28;20097;-76
2023/07/08 01:09:58;;;;;;;11.18;8.43;;;;;;;18.22;100.00;93406.22;5078684;28;20053;-76
2023/07/08 01:12:28;;;;;;;13.23;8.57;;;;;;;18.23;100.00;93400.00;5081630;28;20506;-75
2023/07/08 01:14:56;;;;;;;13.48;9.23;;;;;;;18.25;100.00;93401.34;5076933;28;20040;-76
2023/07/08 01:17:24;;;;;;;12.25;8.65;;;;;;;18.30;100.00;93400.56;5086392;28;20673;-76
2023/07/08 01:19:55;;;;;;;12.02;9.23;;;;;;;18.26;100.00;93387.28;5085737;28;20062;-76
2023/07/08 01:22:23;;;;;;;13.88;9.15;;;;;;;18.31;100.00;93396.94;5069333;28;20053;-76
2023/07/08 01:24:50;;;;;;;15.38;8.93;;;;;;;18.29;100.00;93393.81;5069808;28;20048;-76
2023/07/08 01:27:20;;;;;;;14.55;9.07;;;;;;;18.23;100.00;93389.63;5069489;28;20041;-76
2023/07/08 01:29:47;;;;;;;11.23;8.90;;;;;;;18.30;100.00;93401.31;5069491;28;20825;-76
2023/07/08 01:32:17;;;;;;;11.20;8.20;;;;;;;18.32;100.00;93392.53;5069107;28;20053;-75
2023/07/08 01:34:59;;;;;;;12.75;9.07;;;;;;;18.23;100.00;93374.03;5070910;28;20057;-76
2023/07/08 01:37:32;;;;;;;12.77;8.85;;;;;;;18.27;100.00;93373.25;5069289;28;20075;-76
2023/07/08 01:39:58;;;;;;;13.25;9.07;;;;;;;18.36;100.00;93386.53;5086446;28;20048;-76
2023/07/08 01:42:25;;;;;;;12.30;9.38;;;;;;;18.33;100.00;93374.03;5085871;28;20570;-76
2023/07/08 01:44:52;;;;;;;13.05;8.98;;;;;;;18.32;100.00;93372.47;5070664;28;20041;-76
2023/07/08 01:47:23;;;;;;;13.70;9.93;;;;;;;18.31;100.00;93383.91;5068411;28;20056;-76
2023/07/08 01:49:50;;;;;;;11.32;8.52;;;;;;;18.25;100.00;93372.72;5073593;28;20043;-76
2023/07/08 01:52:18;;;;;;;15.82;8.60;;;;;;;18.26;100.00;93379.50;5080874;28;20094;-76
2023/07/08 01:54:55;;;;;;;11.73;9.50;;;;;;;18.33;100.00;93386.28;5081339;28;20036;-76
2023/07/08 01:57:22;;;;;;;10.38;8.73;;;;;;;18.33;100.00;93383.69;5078856;28;20040;-76
2023/07/08 01:59:48;;;;;;;12.18;8.70;;;;;;;18.30;100.00;93390.94;5078129;28;20051;-76
2023/07/08 02:02:15;;;;;;;12.15;9.02;;;;;;;18.27;100.00;93386.25;5080103;28;20550;-76
2023/07/08 02:04:42;;;;;;;12.02;9.57;;;;;;;18.26;100.00;93391.69;5073843;28;20100;-76
2023/07/08 02:07:08;;;;;;;13.23;8.95;;;;;;;18.30;100.00;93392.75;5074573;28;20063;-76
2023/07/08 02:09:35;;;;;;;16.58;9.43;;;;;;;18.25;100.00;93390.94;5068395;28;20102;-76
2023/07/08 02:12:04;;;;;;;14.90;10.25;;;;;;;18.25;100.00;93392.72;5068851;28;20057;-76
2023/07/08 02:14:30;;;;;;;15.30;10.50;;;;;;;18.31;100.00;93399.53;5071992;28;20117;-76
2023/07/08 02:16:57;;;;;;;12.90;9.82;;;;;;;18.32;100.00;93389.91;5068398;28;20048;-76
2023/07/08 02:19:25;;;;;;;12.82;9.93;;;;;;;18.28;100.00;93392.22;5068313;28;20048;-76
2023/07/08 02:21:52;;;;;;;12.95;10.18;;;;;;;18.27;100.00;93383.66;5072410;28;20449;-76
2023/07/08 02:24:19;;;;;;;12.45;10.05;;;;;;;18.27;100.00;93390.66;5067962;28;20045;-76
2023/07/08 02:26:47;;;;;;;14.25;10.00;;;;;;;18.24;100.00;93391.94;5072733;28;20044;-76
2023/07/08 02:29:15;;;;;;;14.07;10.05;;;;;;;18.19;100.00;93391.91;5068297;28;20080;-76
2023/07/08 02:31:41;;;;;;;12.60;9.02;;;;;;;18.16;100.00;93405.44;5070037;28;20097;-76
2023/07/08 02:34:08;;;;;;;13.40;10.05;;;;;;;18.09;100.00;93395.25;5070943;28;20048;-76
2023/07/08 02:36:36;;;;;;;12.98;9.45;;;;;;;18.12;100.00;93407.75;5072131;28;20096;-77
2023/07/08 02:39:03;;;;;;;13.65;10.00;;;;;;;18.08;100.00;93405.91;5073981;28;20536;-77
2023/07/08 02:41:30;;;;;;;14.98;9.75;;;;;;;17.99;100.00;93405.56;5075792;28;20045;-76
2023/07/08 02:43:56;;;;;;;13.82;10.10;;;;;;;18.00;100.00;93417.50;5077169;28;20040;-77
2023/07/08 02:46:25;;;;;;;13.30;9.43;;;;;;;17.93;100.00;93407.34;5076779;28;20153;-76
2023/07/08 02:48:51;;;;;;;12.40;9.40;;;;;;;17.89;100.00;93406.28;5076723;28;20044;-76
2023/07/08 02:51:18;;;;;;;12.77;9.65;;;;;;;17.86;100.00;93409.38;5078249;28;20097;-76
2023/07/08 02:53:45;;;;;;;16.33;10.32;;;;;;;17.83;100.00;93412.47;5077368;28;20045;-76
2023/07/08 02:56:11;;;;;;;13.48;10.05;;;;;;;17.82;100.00;93413.53;5080754;28;20040;-76
2023/07/08 02:58:38;;;;;;;13.70;9.52;;;;;;;17.76;100.00;93420.47;5076198;28;20147;-76
2023/07/08 03:01:06;;;;;;;13.07;10.07;;;;;;;17.71;100.00;93421.25;5077794;28;20090;-76
2023/07/08 03:03:34;;;;;;;12.65;9.88;;;;;;;17.74;100.00;93420.72;5075128;28;20052;-76
2023/07/08 03:06:03;;;;;;;12.15;9.57;;;;;;;17.74;100.00;93419.97;5076626;28;20152;-76
2023/07/08 03:08:30;;;;;;;14.18;10.35;;;;;;;17.69;100.00;93425.88;5076284;28;20494;-76
2023/07/08 03:10:59;;;;;;;14.60;10.38;;;;;;;17.66;100.00;93421.19;5077898;28;20467;-76
2023/07/08 03:13:26;;;;;;;13.75;10.35;;;;;;;17.58;100.00;93417.25;5075232;28;20090;-76
2023/07/08 03:15:54;;;;;;;13.88;10.35;;;;;;;17.55;100.00;93422.91;5075863;28;20041;-76
2023/07/08 03:18:23;;;;;;;14.43;10.38;;;;;;;17.55;100.00;93415.13;5075207;28;20083;-76
2023/07/08 03:20:51;;;;;;;12.73;9.98;;;;;;;17.50;100.00;93421.06;5077700;28;20048;-76
2023/07/08 03:23:18;;;;;;;13.13;10.07;;;;;;;17.49;100.00;93416.13;5076212;28;20044;-76
2023/07/08 03:25:44;;;;;;;16.83;10.50;;;;;;;17.49;100.00;93413.53;5076756;28;20047;-76
2023/07/08 03:28:14;;;;;;;18.00;11.43;;;;;;;17.45;100.00;93410.63;5077707;28;20093;-76
2023/07/08 03:30:41;;;;;;;14.40;10.48;;;;;;;17.29;100.00;93388.97;5074692;28;20529;-76
2023/07/08 03:33:08;;;;;;;14.05;9.90;;;;;;;17.26;100.00;93392.03;5073216;28;20052;-76
2023/07/08 03:35:35;;;;;;;14.80;10.50;;;;;;;17.37;100.00;93403.31;5072899;28;20640;-76
2023/07/08 03:38:04;;;;;;;13.38;10.77;;;;;;;17.32;100.00;93408.47;5079704;28;20201;-75
2023/07/08 03:40:31;;;;;;;13.43;10.32;;;;;;;17.28;100.00;93394.41;5078933;28;20041;-75
2023/07/08 03:42:56;;;;;;;15.70;11.73;;;;;;;17.29;100.00;93396.75;5077969;28;20048;-74
2023/07/08 03:45:23;;;;;;;16.30;11.35;;;;;;;17.29;100.00;93398.56;5078267;28;20037;-74
2023/07/08 03:47:50;;;;;;;14.65;10.85;;;;;;;17.30;100.00;93395.72;5075109;28;20098;-75
2023/07/08 03:50:20;;;;;;;15.88;12.30;;;;;;;17.29;100.00;93399.34;5078387;28;20036;-75
2023/07/08 03:52:47;;;;;;;16.17;11.43;;;;;;;17.29;100.00;93391.56;5076626;28;20099;-76
2023/07/08 03:55:16;;;;;;;17.58;11.65;;;;;;;17.36;100.00;93402.53;5074368;28;20040;-76
2023/07/08 03:57:43;;;;;;;14.32;11.15;;;;;;;17.40;100.00;93396.84;5073594;28;20048;-76
2023/07/08 04:00:11;;;;;;;22.33;13.73;;;;;;;17.28;100.00;93368.44;5076372;28;20086;-76
2023/07/08 04:02:38;;;;;;;17.83;11.43;;;;;;;17.35;100.00;93387.19;5077671;28;20044;-76
2023/07/08 04:05:06;;;;;;;12.65;9.43;;;;;;;17.23;100.00;93390.72;5076250;28;20041;-76
2023/07/08 04:07:33;;;;;;;12.63;8.88;;;;;;;17.29;100.00;93404.53;5076355;28;20917;-76
2023/07/08 04:09:59;;;;;;;15.63;10.30;;;;;;;17.33;100.00;93395.25;5075681;28;20090;-76
2023/07/08 04:12:28;;;;;;;12.00;9.57;;;;;;;17.26;100.00;93399.06;5075761;28;20052;-76
2023/07/08 04:14:55;;;;;;;12.95;9.85;;;;;;;17.27;100.00;93392.84;5077328;28;20047;-76
2023/07/08 04:17:23;;;;;;;13.45;10.18;;;;;;;17.29;100.00;93390.78;5076083;28;20109;-76
2023/07/08 04:19:49;;;;;;;15.40;10.15;;;;;;;17.45;100.00;93396.88;5078046;28;20049;-76
2023/07/08 04:22:17;;;;;;;16.23;10.52;;;;;;;17.54;100.00;93407.59;5078081;28;20044;-76
2023/07/08 04:24:44;;;;;;;15.45;9.20;;;;;;;17.42;100.00;93403.34;5077917;28;20607;-76
2023/07/08 04:27:15;;;;;;;13.80;9.60;;;;;;;17.60;100.00;93409.97;5081177;28;20116;-76
2023/07/08 04:29:44;;;;;;;13.43;9.63;;;;;;;17.66;100.00;93403.00;5078580;28;20071;-76
2023/07/08 04:32:11;;;;;;;12.00;9.18;;;;;;;17.57;100.00;93399.31;5075852;28;20083;-77
2023/07/08 04:34:37;;;;;;;11.98;8.63;;;;;;;17.69;100.00;93407.69;5075970;28;20090;-77
2023/07/08 04:37:05;;;;;;;10.80;8.48;;;;;;;17.55;100.00;93407.34;5078509;28;20104;-77
2023/07/08 04:39:32;;;;;;;11.38;8.32;;;;;;;17.56;100.00;93406.31;5077586;28;20061;-76
2023/07/08 04:41:59;;;;;;;10.50;7.82;;;;;;;17.66;100.00;93425.59;5078481;28;20089;-76
2023/07/08 04:44:27;;;;;;;9.90;7.50;;;;;;;17.62;100.00;93414.91;5077385;28;20041;-75
2023/07/08 04:46:57;;;;;;;9.57;7.03;;;;;;;17.49;100.00;93419.50;5078084;28;20055;-76
2023/07/08 04:49:24;;;;;;;9.98;8.13;;;;;;;17.57;100.00;93431.25;5079943;28;20047;-76
2023/07/08 04:51:52;;;;;;;14.05;8.77;;;;;;;17.55;100.00;93420.31;5077535;28;20045;-76
2023/07/08 04:54:19;;;;;;;12.15;9.02;;;;;;;17.80;100.00;93429.34;5077180;28;20044;-76
2023/07/08 04:56:47;;;;;;;11.77;8.60;;;;;;;17.81;100.00;93440.53;5079005;28;20045;-76
2023/07/08 04:59:15;;;;;;;13.75;8.02;;;;;;;17.86;100.00;93433.56;5078555;28;20056;-76
2023/07/08 05:01:42;;;;;;;11.13;8.02;;;;;;;17.70;100.00;93401.50;5078852;28;20111;-76
2023/07/08 05:04:13;;;;;;;11.25;7.90;;;;;;;17.97;100.00;93437.00;5077377;28;20463;-76
2023/07/08 05:06:40;;;;;;;11.10;7.30;;;;;;;18.00;100.00;93436.50;5077504;28;20539;-76
2023/07/08 05:09:07;;;;;;;9.88;7.60;;;;;;;18.10;100.00;93442.84;5080366;28;20056;-76
2023/07/08 05:11:34;;;;;;;12.02;7.05;;;;;;;18.26;100.00;93439.28;5075297;28;20498;-76
2023/07/08 05:14:02;;;;;;;10.93;7.00;;;;;;;18.27;100.00;93433.06;5079350;28;20052;-76
2023/07/08 05:16:29;;;;;;;8.73;7.35;;;;;;;18.51;100.00;93455.28;5076217;28;20069;-76
2023/07/08 05:18:56;;;;;;;8.25;6.57;;;;;;;18.56;100.00;93458.69;5078415;28;20040;-77
2023/07/08 05:21:25;;;;;;;7.43;6.35;;;;;;;18.64;100.00;93451.41;5080314;28;20040;-76
2023/07/08 05:23:53;;;;;;;8.48;6.57;;;;;;;18.79;100.00;93455.94;5075162;28;20098;-76
2023/07/08 05:26:20;;;;;;;9.23;6.63;;;;;;;18.88;100.00;93436.16;5073856;28;20052;-76
2023/07/08 05:28:47;;;;;;;9.27;6.60;;;;;;;19.00;100.00;93438.53;5078416;28;20184;-76
2023/07/08 05:31:13;;;;;;;8.57;6.72;;;;;;;19.03;100.00;93445.06;5078097;28;20117;-76
2023/07/08 05:33:40;;;;;;;8.48;6.53;;;;;;;19.09;100.00;93450.06;5078702;28;20494;-77
2023/07/08 05:36:07;;;;;;;9.75;6.75;;;;;;;19.26;100.00;93450.88;5078666;28;20056;-76
2023/07/08 05:38:35;;;;;;;9.07;6.40;;;;;;;19.33;100.00;93460.00;5074676;28;20056;-76
2023/07/08 05:41:02;;;;;;;8.05;6.22;;;;;;;19.31;100.00;93477.69;5077021;28;20048;-75
2023/07/08 05:43:29;;;;;;;8.50;6.18;;;;;;;19.40;100.00;93482.41;5082284;28;20459;-75
2023/07/08 05:45:59;;;;;;;8.85;7.05;;;;;;;19.32;100.00;93486.28;5079817;28;20044;-75
2023/07/08 05:48:26;;;;;;;9.73;6.53;;;;;;;19.19;100.00;93483.16;5077203;28;20114;-75
2023/07/08 05:50:53;;;;;;;9.52;7.18;;;;;;;19.17;100.00;93487.81;5078164;28;20780;-75
2023/07/08 05:53:21;;;;;;;15.38;7.50;;;;;;;19.21;100.00;93488.88;5076223;28;20887;-75
2023/07/08 05:55:49;;;;;;;9.15;6.75;;;;;;;19.22;100.00;93492.28;5080892;28;20048;-75
2023/07/08 05:58:16;;;;;;;9.95;6.78;;;;;;;19.21;100.00;93493.31;5080166;28;20124;-76
2023/07/08 06:00:43;;;;;;;9.52;7.50;;;;;;;19.19;100.00;93483.16;5077607;28;20118;-75
2023/07/08 06:03:10;;;;;;;9.05;6.90;;;;;;;19.16;100.00;93496.66;5072628;28;20058;-75
2023/07/08 06:05:37;;;;;;;12.07;7.88;;;;;;;19.08;100.00;93494.56;5073034;28;20094;-75
2023/07/08 06:08:04;;;;;;;11.55;7.90;;;;;;;19.15;100.00;93489.91;5074118;28;20048;-75
2023/07/08 06:10:31;;;;;;;15.18;8.02;;;;;;;19.19;100.00;93500.59;5071439;28;20082;-76
2023/07/08 06:12:59;;;;;;;13.55;7.43;;;;;;;19.29;100.00;93497.22;5073508;28;20112;-76
2023/07/08 06:15:26;;;;;;;11.13;7.80;;;;;;;19.49;100.00;93501.72;5073411;28;20056;-76
2023/07/08 06:17:53;;;;;;;14.65;8.25;;;;;;;19.74;100.00;93498.34;5073968;28;20082;-76
2023/07/08 06:20:19;;;;;;;11.27;7.97;;;;;;;19.97;100.00;93501.50;5070453;28;20044;-77
2023/07/08 06:22:46;;;;;;;9.63;7.03;;;;;;;20.03;100.00;93502.28;5073469;28;20546;-76
2023/07/08 06:25:13;;;;;;;10.65;7.80;;;;;;;20.05;100.00;93510.63;5072529;28;20040;-77
2023/07/08 06:27:39;;;;;;;10.30;6.88;;;;;;;20.22;100.00;93510.34;5074109;28;20485;-76
2023/07/08 06:30:10;;;;;;;9.45;5.72;;;;;;;20.12;100.00;93513.75;5073331;28;20109;-76
2023/07/08 06:32:36;;;;;;;12.63;6.93;;;;;;;20.10;100.00;93515.84;5072008;28;20044;-77
2023/07/08 06:35:04;;;;;;;6.75;4.97;;;;;;;20.02;100.00;93509.34;5077263;28;20048;-77
2023/07/08 06:37:31;;;;;;;8.95;5.55;;;;;;;19.87;100.00;93524.94;5076001;28;20056;-77
2023/07/08 06:39:57;;;;;;;13.63;5.85;;;;;;;19.73;100.00;93515.00;5073106;28;20105;-79
2023/07/08 06:42:24;;;;;;;9.68;5.80;;;;;;;19.51;100.00;93494.41;5071541;28;20608;-77
2023/07/08 06:44:51;;;;;;;9.82;5.68;;;;;;;19.68;100.00;93525.44;5072668;28;20122;-79
2023/07/08 06:47:19;;;;;;;10.63;5.80;;;;;;;19.53;100.00;93507.94;5075425;28;20040;-77
2023/07/08 06:49:46;;;;;;;12.15;5.03;;;;;;;19.69;99.47;93529.63;5071634;28;20536;-77
2023/07/08 06:52:13;;;;;;;9.25;5.50;;;;;;;19.79;100.00;93517.63;5073134;28;20106;-78
2023/07/08 06:54:40;;;;;;;11.98;5.90;;;;;;;19.69;100.00;93513.97;5072315;28;20052;-78
2023/07/08 06:57:07;;;;;;;11.27;5.63;;;;;;;19.82;98.84;93533.56;5071520;28;20044;-78
2023/07/08 06:59:34;;;;;;;8.48;4.63;;;;;;;19.93;100.00;93525.72;5072561;28;20117;-80
2023/07/08 07:02:01;;;;;;;8.25;5.05;;;;;;;20.08;98.06;93535.41;5070543;28;20498;-77
2023/07/08 07:04:30;;;;;;;6.63;4.78;;;;;;;20.13;96.73;93532.78;5071387;28;20048;-77
2023/07/08 07:06:57;;;;;;;8.85;4.90;;;;;;;20.24;94.02;93536.19;5069931;28;20051;-77
2023/07/08 07:09:24;;;;;;;9.32;5.63;;;;;;;20.23;93.59;93538.00;5070551;28;20133;-78
2023/07/08 07:11:53;;;;;;;11.02;5.20;;;;;;;20.23;98.31;93532.00;5069440;28;20052;-78
2023/07/08 07:14:20;;;;;;;9.95;4.82;;;;;;;20.15;94.03;93539.28;5072408;28;20053;-77
2023/07/08 07:16:47;;;;;;;9.00;5.25;;;;;;;20.06;93.17;93545.31;5072492;28;20094;-78
2023/07/08 07:19:14;;;;;;;9.07;4.75;;;;;;;20.01;94.89;93543.50;5071052;28;20608;-77
2023/07/08 07:21:42;;;;;;;8.05;4.78;;;;;;;19.98;94.25;93546.59;5070262;28;20494;-77
2023/07/08 07:24:09;;;;;;;7.05;4.53;;;;;;;20.25;93.86;93553.38;5071796;28;20493;-78
2023/07/08 07:26:36;;;;;;;8.98;4.97;;;;;;;20.12;92.24;93541.66;5071197;28;20056;-77
2023/07/08 07:29:03;;;;;;;7.15;4.53;;;;;;;20.31;92.71;93554.94;5073876;28;20912;-77
2023/07/08 07:31:32;;;;;;;9.02;4.28;;;;;;;20.55;91.61;93565.63;5075918;28;20114;-77
2023/07/08 07:33:59;;;;;;;9.35;5.07;;;;;;;20.66;92.50;93529.88;5074439;28;20054;-77
2023/07/08 07:36:26;;;;;;;5.65;4.15;;;;;;;21.18;90.89;93565.50;5074787;28;20060;-77
2023/07/08 07:38:54;;;;;;;5.30;3.58;;;;;;;21.14;85.63;93572.28;5074882;28;20041;-78
2023/07/08 07:41:21;;;;;;;5.57;3.55;;;;;;;21.08;87.88;93571.53;5074265;28;20097;-76
2023/07/08 07:43:48;;;;;;;6.10;4.20;;;;;;;21.15;86.57;93569.44;5075229;28;20063;-76
2023/07/08 07:46:15;;;;;;;5.28;3.75;;;;;;;21.47;88.31;93563.03;5076074;28;20497;-78
2023/07/08 07:48:42;;;;;;;7.18;4.43;;;;;;;21.98;88.31;93560.41;5078159;28;20041;-77
2023/07/08 07:51:10;;;;;;;5.00;3.55;;;;;;;21.99;83.92;93573.19;5077737;28;20064;-78
2023/07/08 07:53:37;;;;;;;5.88;3.83;;;;;;;22.11;83.23;93574.69;5077362;28;20052;-77
2023/07/08 07:56:06;;;;;;;5.72;3.58;;;;;;;22.15;85.79;93568.66;5085525;28;20804;-78
2023/07/08 07:58:33;;;;;;;5.35;3.78;;;;;;;22.44;83.30;93572.34;5086455;28;20052;-78
2023/07/08 08:00:59;;;;;;;5.57;3.88;;;;;;;22.73;82.98;93579.44;5075944;28;20084;-78
2023/07/08 08:03:26;;;;;;;5.75;3.88;;;;;;;22.78;83.66;93566.28;5080394;28;20052;-77
2023/07/08 08:05:53;;;;;;;4.90;3.42;;;;;;;22.85;81.88;93571.22;5084903;28;20451;-77
2023/07/08 08:08:22;;;;;;;7.53;3.72;;;;;;;23.08;78.54;93577.53;5075942;28;20098;-77
2023/07/08 08:10:49;;;;;;;6.53;3.92;;;;;;;23.17;82.07;93561.97;5077133;28;20044;-78
2023/07/08 08:13:17;;;;;;;6.20;3.70;;;;;;;23.58;78.69;93579.06;5081473;28;20390;-77
2023/07/08 08:15:44;;;;;;;7.78;4.38;;;;;;;23.85;77.42;93584.72;5083747;28;20040;-77
2023/07/08 08:18:10;;;;;;;9.05;4.22;;;;;;;23.84;76.87;93568.19;5083411;28;20567;-78
2023/07/08 08:20:39;;;;;;;7.03;3.70;;;;;;;24.15;73.58;93580.13;5084469;28;20036;-78
2023/07/08 08:23:06;;;;;;;4.03;2.90;;;;;;;24.40;74.65;93571.06;5080886;28;20048;-77
2023/07/08 08:25:33;;;;;;;4.85;2.95;;;;;;;24.58;73.41;93567.91;5082782;28;20552;-77
2023/07/08 08:28:00;;;;;;;4.28;3.00;;;;;;;24.60;72.25;93577.06;5075854;28;20044;-77
2023/07/08 08:30:28;;;;;;;4.47;3.08;;;;;;;23.38;72.76;93579.31;5082650;28;20493;-78
2023/07/08 08:32:54;;;;;;;4.63;2.78;;;;;;;23.33;74.63;93570.44;5080769;28;20121;-79
2023/07/08 08:35:21;;;;;;;5.93;2.95;;;;;;;23.18;75.21;93566.13;5076926;28;20055;-77
2023/07/08 08:37:48;;;;;;;7.10;3.10;;;;;;;23.29;75.21;93545.81;5078798;28;20105;-78
2023/07/08 08:40:18;;;;;;;4.53;2.50;;;;;;;23.55;73.67;93535.03;5078131;28;20048;-78
2023/07/08 08:42:48;;;;;;;4.47;3.08;;;;;;;23.37;76.94;93567.28;5073690;28;20044;-79
2023/07/08 08:45:20;;;;;;;4.15;2.65;;;;;;;22.48;78.77;93564.72;5074653;28;20060;-77
2023/07/08 08:47:52;;;;;;;6.47;3.00;;;;;;;22.64;79.62;93568.78;5072933;28;20044;-78
2023/07/08 08:50:31;;;;;;;4.82;3.42;;;;;;;22.71;80.28;93552.75;5078294;28;20160;-78
2023/07/08 08:53:00;;;;;;;4.22;3.00;;;;;;;23.16;78.24;93565.66;5079984;28;20045;-79
2023/07/08 08:55:27;;;;;;;4.43;2.85;;;;;;;22.81;78.05;93570.19;5080901;28;20117;-78
2023/07/08 08:58:02;;;;;;;4.35;3.80;;;;;;;22.63;79.11;93558.59;5074629;28;20056;-78
2023/07/08 09:00:38;;;;;;;4.20;2.80;;;;;;;22.54;78.09;93564.44;5075189;28;20117;-77
2023/07/08 09:03:33;;;;;;;6.13;3.30;;;;;;;22.60;81.62;93549.47;5071352;28;20554;-78
2023/07/08 09:06:01;;;;;;;5.28;2.95;;;;;;;22.24;79.99;93563.63;5077580;28;20048;-82
2023/07/08 09:08:34;;;;;;;4.05;3.05;;;;;;;22.32;81.24;93562.25;5079046;28;20051;-77
2023/07/08 09:11:11;;;;;;;4.72;3.05;;;;;;;22.36;81.89;93555.38;5072506;28;20098;-77
2023/07/08 09:13:38;;;;;;;4.15;2.97;;;;;;;23.01;81.31;93548.25;5077934;28;20059;-76
2023/07/08 09:16:10;;;;;;;3.85;2.80;;;;;;;23.71;78.00;93551.34;5073959;28;20036;-76
2023/07/08 09:18:46;;;;;;;4.95;2.78;;;;;;;24.15;73.98;93553.88;5073811;28;20113;-76
2023/07/08 09:21:20;;;;;;;5.70;2.85;;;;;;;23.89;74.47;93539.28;5079062;28;20127;-76
2023/07/08 09:23:51;;;;;;;4.97;2.97;;;;;;;23.81;73.49;93524.19;5072555;28;20052;-76
2023/07/08 09:26:22;;;;;;;4.53;2.75;;;;;;;23.46;72.81;93552.44;5075718;28;20052;-77
2023/07/08 09:28:49;;;;;;;4.22;3.05;;;;;;;22.91;75.76;93540.50;5071089;28;20942;-76
2023/07/08 09:31:24;;;;;;;3.78;2.75;;;;;;;22.97;76.64;93531.53;5080849;28;20048;-76
2023/07/08 09:33:53;;;;;;;4.22;3.03;;;;;;;23.23;75.95;93536.47;5075160;28;20052;-77
2023/07/08 09:36:25;;;;;;;4.57;3.55;;;;;;;23.34;73.29;93543.16;5081171;28;20040;-78
2023/07/08 09:38:52;;;;;;;4.47;2.83;;;;;;;23.88;71.89;93527.22;5078029;28;20194;-77
2023/07/08 09:41:34;;;;;;;4.25;2.40;;;;;;;23.12;70.75;93535.03;5075146;28;20551;-77
2023/07/08 09:44:15;;;;;;;3.28;2.45;;;;;;;22.84;73.91;93538.22;5074176;28;20041;-76
2023/07/08 09:46:42;;;;;;;4.70;2.75;;;;;;;23.15;74.93;93540.47;5078188;28;20495;-76
2023/07/08 09:49:19;;;;;;;4.45;3.05;;;;;;;23.20;71.04;93534.41;5074692;28;20098;-78
2023/07/08 09:51:46;;;;;;;4.05;2.65;;;;;;;23.48;74.04;93532.75;5071709;28;20040;-77
2023/07/08 09:54:13;;;;;;;4.45;2.72;;;;;;;23.79;72.38;93528.16;5075832;28;20493;-77
2023/07/08 09:56:44;;;;;;;4.32;2.80;;;;;;;24.11;70.81;93535.31;5075930;28;20048;-77
2023/07/08 09:59:14;;;;;;;3.58;2.10;;;;;;;24.26;71.61;93539.53;5082060;28;20044;-77
2023/07/08 10:01:42;;;;;;;2.92;1.95;;;;;;;24.49;67.67;93539.66;5082317;28;20115;-77
2023/07/08 10:04:09;;;;;;;3.05;2.05;;;;;;;23.73;69.17;93538.72;5082391;28;20036;-77
2023/07/08 10:06:37;;;;;;;3.55;2.28;;;;;;;23.47;67.29;93533.06;5082164;28;20040;-76
2023/07/08 10:09:11;;;;;;;6.43;2.10;;;;;;;23.69;67.96;93519.38;5076228;28;20796;-76
2023/07/08 10:11:42;;;;;;;3.55;2.35;;;;;;;23.59;70.89;93499.34;5075476;28;20048;-75
2023/07/08 10:14:13;;;;;;;5.40;2.60;;;;;;;24.01;71.95;93523.09;5071861;28;20056;-75
2023/07/08 10:16:41;;;;;;;4.03;2.75;;;;;;;23.67;68.63;93497.91;5073285;28;20102;-75
2023/07/08 10:19:14;;;;;;;3.67;2.17;;;;;;;23.67;69.41;93524.13;5076238;28;20563;-76
2023/07/08 10:21:51;;;;;;;4.05;2.20;;;;;;;23.48;70.20;93501.31;5073062;28;20048;-76
2023/07/08 10:24:30;;;;;;;4.45;2.40;;;;;;;23.55;70.07;93523.78;5075393;28;20098;-76
2023/07/08 10:27:08;;;;;;;4.35;2.80;;;;;;;23.78;70.52;93516.88;5076151;28;20044;-76
2023/07/08 10:29:44;;;;;;;3.03;2.22;;;;;;;24.03;69.00;93507.84;5068317;28;20113;-75
2023/07/08 10:32:22;;;;;;;4.50;2.30;;;;;;;24.39;67.77;93505.75;5070505;28;20045;-76
2023/07/08 10:34:56;;;;;;;3.97;2.22;;;;;;;24.36;67.13;93496.59;5078491;28;20048;-76
2023/07/08 10:37:33;;;;;;;4.40;2.30;;;;;;;24.15;68.96;93480.41;5082612;28;20464;-77
2023/07/08 10:40:13;;;;;;;6.70;2.42;;;;;;;24.77;70.41;93486.41;5077898;28;20044;-78
2023/07/08 10:42:54;;;;;;;5.70;2.50;;;;;;;25.08;68.19;93498.97;5068809;28;20367;-77
2023/07/08 10:45:31;;;;;;;4.32;2.08;;;;;;;24.66;65.77;93488.44;5074006;28;20430;-78
2023/07/08 10:48:12;;;;;;;4.22;2.35;;;;;;;24.88;66.06;93498.31;5079083;28;20041;-77
2023/07/08 10:50:51;;;;;;;4.85;2.58;;;;;;;25.21;63.00;93507.91;5068554;28;20673;-77
2023/07/08 10:53:36;;;;;;;3.50;2.33;;;;;;;25.00;64.78;93504.91;5073762;28;20109;-79
2023/07/08 10:56:12;;;;;;;3.43;2.23;;;;;;;25.12;61.06;93504.44;5079281;28;20109;-78
2023/07/08 10:59:11;;;;;;;4.22;2.72;;;;;;;24.74;62.80;93489.59;5067322;28;20343;-78
2023/07/08 11:01:51;;;;;;;4.57;2.63;;;;;;;24.47;65.69;93488.50;5060561;28;20089;-77
2023/07/08 11:04:47;;;;;;;3.58;2.25;;;;;;;24.64;65.96;93482.69;5070642;28;20488;-78
2023/07/08 11:07:19;;;;;;;4.07;2.83;;;;;;;24.35;65.16;93481.88;5067749;28;20052;-78
2023/07/08 11:09:53;;;;;;;4.13;2.70;;;;;;;24.71;64.63;93477.06;5072221;28;20117;-77
2023/07/08 11:12:28;;;;;;;3.70;2.33;;;;;;;24.91;66.44;93474.06;5067457;28;20044;-79
2023/07/08 11:15:00;;;;;;;3.83;2.50;;;;;;;24.87;64.52;93467.84;5069084;28;20052;-77
2023/07/08 11:17:33;;;;;;;5.57;3.10;;;;;;;25.20;65.42;93477.44;5070845;28;20061;-77
2023/07/08 11:20:05;;;;;;;3.50;2.17;;;;;;;25.47;60.36;93468.69;5068424;28;20094;-78
2023/07/08 11:22:35;;;;;;;4.53;2.90;;;;;;;25.47;61.44;93476.56;5067768;28;20048;-76
2023/07/08 11:25:05;;;;;;;5.00;2.25;;;;;;;25.86;62.98;93458.66;5067679;28;20448;-78
2023/07/08 11:27:37;;;;;;;4.10;2.40;;;;;;;25.80;62.80;93440.63;5068609;28;20044;-77
2023/07/08 11:30:13;;;;;;;3.85;2.50;;;;;;;25.65;61.39;93479.41;5075366;28;20864;-77
2023/07/08 11:32:41;;;;;;;4.57;2.85;;;;;;;25.49;62.70;93463.13;5072389;28;20048;-77